Time;durP1;ratioP1;P1;durP2;ratioP2;P2;SDS_P1;SDS_P2;PMS_P1;PMS_P2;Temp;Humidity;BMP_temperature;BMP_pressure;BME280_temperature;BME280_humidity;BME280_pressure;Samples;Min_cycle;Max_cycle;Signal;HPM_P1;HPM_P2
2024/02/20 00:01:50;;;;;;;4.90;2.10;;;;;;;;;;5983494;24;20012;-73
2024/02/20 00:04:18;;;;;;;3.67;2.30;;;;;;;;;;5983816;23;20430;-74
2024/02/20 00:06:47;;;;;;;4.00;2.25;;;;;;;;;;5985429;23;20007;-77
2024/02/20 00:09:14;;;;;;;3.55;2.50;;;;;;;;;;5983763;23;20028;-74
2024/02/20 00:11:39;;;;;;;5.53;2.13;;;;;;;;;;5960136;24;20107;-75
2024/02/20 00:14:05;;;;;;;3.85;2.10;;;;;;;;;;5982923;24;20040;-75
2024/02/20 00:16:31;;;;;;;3.20;1.85;;;;;;;;;;5985189;23;20080;-74
2024/02/20 00:18:57;;;;;;;4.97;2.50;;;;;;;;;;5984052;24;20430;-78
2024/02/20 00:21:24;;;;;;;2.50;1.77;;;;;;;;;;5983856;24;20076;-74
2024/02/20 00:23:51;;;;;;;4.60;2.60;;;;;;;;;;5984149;23;20016;-74
2024/02/20 00:26:18;;;;;;;6.72;2.47;;;;;;;;;;5984027;24;20012;-73
2024/02/20 00:28:44;;;;;;;3.53;2.15;;;;;;;;;;5984650;23;20008;-73
2024/02/20 00:31:11;;;;;;;3.88;2.20;;;;;;;;;;5959637;24;20076;-74
2024/02/20 00:33:38;;;;;;;5.60;2.30;;;;;;;;;;5983024;23;20008;-74
2024/02/20 00:36:05;;;;;;;5.32;2.05;;;;;;;;;;5982036;24;20353;-75
2024/02/20 00:38:31;;;;;;;3.50;2.08;;;;;;;;;;5982672;24;20035;-74
2024/02/20 00:40:57;;;;;;;5.55;2.40;;;;;;;;;;5981888;24;20468;-74
2024/02/20 00:43:23;;;;;;;4.55;2.50;;;;;;;;;;5962935;24;20449;-74
2024/02/20 00:45:54;;;;;;;6.95;2.47;;;;;;;;;;5963718;24;20076;-75
2024/02/20 00:48:20;;;;;;;3.97;2.28;;;;;;;;;;5939806;24;20008;-75
2024/02/20 00:50:50;;;;;;;4.88;2.22;;;;;;;;;;5982752;23;20084;-75
2024/02/20 00:53:19;;;;;;;5.72;2.00;;;;;;;;;;5984635;23;20012;-76
2024/02/20 00:55:45;;;;;;;3.42;1.80;;;;;;;;;;5983199;24;20434;-75
2024/02/20 00:58:11;;;;;;;4.38;2.67;;;;;;;;;;5983802;23;20016;-74
2024/02/20 01:00:37;;;;;;;8.63;3.03;;;;;;;;;;5981729;24;20023;-73
2024/02/20 01:03:03;;;;;;;3.67;2.30;;;;;;;;;;5982242;23;20015;-74
2024/02/20 01:05:29;;;;;;;5.90;2.70;;;;;;;;;;5958903;24;20024;-76
2024/02/20 01:07:58;;;;;;;3.42;2.20;;;;;;;;;;5958993;24;20299;-76
2024/02/20 01:10:23;;;;;;;5.65;2.38;;;;;;;;;;5986240;23;20016;-76
2024/02/20 01:12:49;;;;;;;5.53;2.53;;;;;;;;;;5985447;24;20390;-76
2024/02/20 01:15:16;;;;;;;5.95;2.13;;;;;;;;;;5982369;24;20342;-75
2024/02/20 01:17:42;;;;;;;4.13;2.15;;;;;;;;;;5982472;24;20456;-75
2024/02/20 01:20:10;;;;;;;8.25;2.67;;;;;;;;;;5985099;24;20102;-74
2024/02/20 01:22:36;;;;;;;6.63;2.47;;;;;;;;;;5960594;24;20019;-75
2024/02/20 01:25:01;;;;;;;9.60;2.55;;;;;;;;;;5982838;23;20016;-75
2024/02/20 01:27:27;;;;;;;4.25;2.42;;;;;;;;;;5981110;24;20004;-76
2024/02/20 01:29:53;;;;;;;8.85;2.65;;;;;;;;;;5981866;24;20023;-75
2024/02/20 01:32:18;;;;;;;5.65;2.22;;;;;;;;;;5981279;23;20047;-75
2024/02/20 01:34:44;;;;;;;4.15;2.13;;;;;;;;;;5981843;23;20011;-77
2024/02/20 01:37:10;;;;;;;5.80;2.47;;;;;;;;;;5978836;23;20007;-75
2024/02/20 01:39:36;;;;;;;5.80;2.83;;;;;;;;;;5981169;24;20046;-77
2024/02/20 01:42:02;;;;;;;6.25;2.10;;;;;;;;;;5982097;24;20096;-75
2024/02/20 01:44:33;;;;;;;5.00;2.45;;;;;;;;;;5984481;23;20008;-74
2024/02/20 01:46:59;;;;;;;7.97;2.55;;;;;;;;;;5983731;24;20024;-73
2024/02/20 01:49:26;;;;;;;6.68;2.67;;;;;;;;;;5987505;23;20498;-75
2024/02/20 01:51:54;;;;;;;5.32;2.88;;;;;;;;;;5980330;23;20103;-73
2024/02/20 01:54:21;;;;;;;10.40;2.80;;;;;;;;;;5979310;24;20041;-75
2024/02/20 01:56:48;;;;;;;5.55;2.53;;;;;;;;;;5981272;24;20012;-74
2024/02/20 01:59:15;;;;;;;6.85;2.50;;;;;;;;;;5981903;24;20011;-74
2024/02/20 02:01:41;;;;;;;4.97;2.45;;;;;;;;;;5981555;23;20012;-76
2024/02/20 02:04:07;;;;;;;9.88;3.40;;;;;;;;;;5958788;24;20083;-75
2024/02/20 02:06:37;;;;;;;5.47;2.45;;;;;;;;;;5981283;24;20012;-75
2024/02/20 02:09:04;;;;;;;5.18;2.40;;;;;;;;;;5981394;24;20481;-74
2024/02/20 02:11:36;;;;;;;7.85;3.50;;;;;;;;;;5958974;24;20011;-77
2024/02/20 02:14:03;;;;;;;6.82;2.88;;;;;;;;;;5959754;24;20090;-76
2024/02/20 02:16:30;;;;;;;7.20;2.67;;;;;;;;;;5980371;23;20088;-76
2024/02/20 02:18:57;;;;;;;5.65;2.88;;;;;;;;;;5980511;24;20402;-74
2024/02/20 02:21:23;;;;;;;5.50;2.65;;;;;;;;;;5983207;23;20012;-74
2024/02/20 02:23:51;;;;;;;9.13;2.80;;;;;;;;;;5980950;24;20015;-75
2024/02/20 02:26:18;;;;;;;3.90;2.70;;;;;;;;;;5982284;24;20015;-74
2024/02/20 02:28:47;;;;;;;5.55;2.40;;;;;;;;;;5981666;24;20012;-74
2024/02/20 02:31:14;;;;;;;4.53;2.35;;;;;;;;;;5981675;23;20008;-74
2024/02/20 02:33:39;;;;;;;8.82;2.97;;;;;;;;;;5980922;24;20545;-75
2024/02/20 02:36:06;;;;;;;6.95;2.70;;;;;;;;;;5981552;24;20117;-74
2024/02/20 02:38:32;;;;;;;5.57;2.78;;;;;;;;;;5983933;23;20008;-73
2024/02/20 02:40:59;;;;;;;5.68;2.97;;;;;;;;;;5982652;23;20067;-74
2024/02/20 02:43:25;;;;;;;5.35;2.80;;;;;;;;;;5987589;23;20012;-74
2024/02/20 02:45:51;;;;;;;5.72;2.83;;;;;;;;;;5987675;23;20108;-75
2024/02/20 02:48:17;;;;;;;5.03;3.08;;;;;;;;;;5984268;24;20013;-76
2024/02/20 02:50:43;;;;;;;7.32;2.72;;;;;;;;;;5981827;23;20050;-71
2024/02/20 02:53:09;;;;;;;6.50;2.90;;;;;;;;;;5981619;24;20011;-74
2024/02/20 02:55:35;;;;;;;7.47;2.70;;;;;;;;;;5983302;24;20341;-76
2024/02/20 02:58:01;;;;;;;6.30;3.00;;;;;;;;;;5987050;23;20009;-75
2024/02/20 03:00:29;;;;;;;9.85;2.90;;;;;;;;;;6008384;23;20079;-74
2024/02/20 03:02:57;;;;;;;7.63;2.80;;;;;;;;;;5982460;24;20052;-73
2024/02/20 03:05:23;;;;;;;6.82;2.88;;;;;;;;;;5983934;23;20026;-74
2024/02/20 03:07:49;;;;;;;8.43;3.72;;;;;;;;;;5981514;24;20008;-74
2024/02/20 03:10:16;;;;;;;5.35;2.55;;;;;;;;;;5985566;23;20019;-74
2024/02/20 03:12:42;;;;;;;4.95;2.80;;;;;;;;;;5984435;24;20012;-74
2024/02/20 03:15:09;;;;;;;3.67;2.78;;;;;;;;;;5983063;24;20012;-75
2024/02/20 03:17:36;;;;;;;5.93;3.17;;;;;;;;;;5984088;24;20317;-74
2024/02/20 03:20:05;;;;;;;7.72;3.20;;;;;;;;;;5961586;24;20012;-74
2024/02/20 03:22:33;;;;;;;4.15;2.60;;;;;;;;;;5961799;24;20084;-75
2024/02/20 03:24:59;;;;;;;8.60;3.17;;;;;;;;;;5984052;24;20096;-74
2024/02/20 03:27:25;;;;;;;6.28;3.30;;;;;;;;;;5984366;23;20008;-75
2024/02/20 03:29:51;;;;;;;6.75;2.90;;;;;;;;;;5983087;24;20331;-73
2024/02/20 03:32:16;;;;;;;7.45;3.28;;;;;;;;;;5983240;23;20011;-75
2024/02/20 03:34:43;;;;;;;7.97;3.38;;;;;;;;;;5982932;23;20011;-75
2024/02/20 03:37:11;;;;;;;8.65;3.15;;;;;;;;;;5983188;23;20016;-76
2024/02/20 03:39:36;;;;;;;6.00;3.00;;;;;;;;;;5960220;24;20084;-75
2024/02/20 03:42:02;;;;;;;5.78;3.10;;;;;;;;;;5982688;24;20442;-72
2024/02/20 03:44:28;;;;;;;6.25;3.42;;;;;;;;;;5983519;24;20015;-76
2024/02/20 03:46:54;;;;;;;9.15;3.38;;;;;;;;;;5982630;24;20015;-74
2024/02/20 03:49:19;;;;;;;7.78;3.33;;;;;;;;;;5983425;23;20342;-74
2024/02/20 03:51:46;;;;;;;7.45;3.13;;;;;;;;;;5983220;23;20024;-72
2024/02/20 03:54:11;;;;;;;8.98;3.80;;;;;;;;;;5983112;24;20067;-73
2024/02/20 03:56:39;;;;;;;7.85;3.85;;;;;;;;;;5984042;24;20382;-74
2024/02/20 03:59:05;;;;;;;10.63;3.90;;;;;;;;;;5985554;23;20080;-75
2024/02/20 04:01:33;;;;;;;7.85;3.50;;;;;;;;;;5985609;23;20019;-76
2024/02/20 04:04:00;;;;;;;6.53;3.22;;;;;;;;;;5983887;24;20015;-75
2024/02/20 04:06:28;;;;;;;8.27;3.35;;;;;;;;;;5982893;24;20012;-74
2024/02/20 04:08:54;;;;;;;9.63;3.70;;;;;;;;;;5983455;23;20012;-75
2024/02/20 04:11:20;;;;;;;7.63;3.17;;;;;;;;;;5982857;24;20015;-74
2024/02/20 04:13:47;;;;;;;10.45;4.45;;;;;;;;;;5984347;23;20028;-76
2024/02/20 04:16:16;;;;;;;6.70;3.23;;;;;;;;;;5984036;23;20031;-73
2024/02/20 04:18:42;;;;;;;7.43;3.35;;;;;;;;;;5982335;24;20011;-75
2024/02/20 04:21:08;;;;;;;6.97;3.33;;;;;;;;;;5982305;24;20254;-77
2024/02/20 04:23:35;;;;;;;15.48;4.25;;;;;;;;;;5982902;24;20445;-74
2024/02/20 04:26:01;;;;;;;6.55;3.45;;;;;;;;;;5981353;24;20134;-73
2024/02/20 04:28:28;;;;;;;10.25;3.67;;;;;;;;;;5983364;24;20461;-73
2024/02/20 04:30:55;;;;;;;10.57;5.20;;;;;;;;;;5983900;23;20339;-73
2024/02/20 04:33:23;;;;;;;12.23;4.20;;;;;;;;;;5982491;24;20012;-74
2024/02/20 04:35:49;;;;;;;7.50;3.50;;;;;;;;;;5982400;23;20012;-72
2024/02/20 04:38:14;;;;;;;5.75;3.30;;;;;;;;;;5982948;23;20015;-76
2024/02/20 04:40:40;;;;;;;5.15;3.10;;;;;;;;;;5987039;23;20012;-75
2024/02/20 04:43:07;;;;;;;9.10;3.70;;;;;;;;;;5981446;24;20008;-75
2024/02/20 04:45:33;;;;;;;14.95;3.95;;;;;;;;;;5981695;24;20027;-75
2024/02/20 04:48:00;;;;;;;6.20;4.15;;;;;;;;;;5978998;24;20012;-75
2024/02/20 04:50:25;;;;;;;9.52;4.32;;;;;;;;;;5979783;23;20020;-75
2024/02/20 04:52:55;;;;;;;13.25;7.55;;;;;;;;;;5985801;23;20441;-73
2024/02/20 04:55:21;;;;;;;8.30;4.05;;;;;;;;;;5985306;24;20083;-74
2024/02/20 04:57:46;;;;;;;7.72;4.07;;;;;;;;;;5983477;24;20055;-76
2024/02/20 05:00:13;;;;;;;10.45;4.88;;;;;;;;;;5983037;23;20050;-76
2024/02/20 05:02:42;;;;;;;12.65;5.05;;;;;;;;;;5979999;24;20012;-73
2024/02/20 05:05:10;;;;;;;7.45;4.50;;;;;;;;;;5956428;24;20012;-73
2024/02/20 05:07:37;;;;;;;10.80;3.88;;;;;;;;;;5960685;24;20029;-76
2024/02/20 05:10:05;;;;;;;13.75;4.47;;;;;;;;;;5937395;24;20022;-74
2024/02/20 05:12:31;;;;;;;10.88;4.22;;;;;;;;;;5983149;24;20426;-77
2024/02/20 05:14:57;;;;;;;7.20;4.00;;;;;;;;;;5959260;24;20008;-76
2024/02/20 05:17:24;;;;;;;10.57;4.70;;;;;;;;;;5983340;24;20698;-75
2024/02/20 05:19:51;;;;;;;18.27;4.28;;;;;;;;;;5982322;24;20032;-76
2024/02/20 05:22:19;;;;;;;9.23;4.25;;;;;;;;;;5984391;23;20004;-74
2024/02/20 05:24:46;;;;;;;8.43;4.15;;;;;;;;;;5982606;24;20045;-76
2024/02/20 05:27:12;;;;;;;9.15;4.20;;;;;;;;;;5982386;24;20015;-75
2024/02/20 05:29:39;;;;;;;5.80;3.15;;;;;;;;;;5982421;24;20008;-75
2024/02/20 05:32:07;;;;;;;13.57;4.15;;;;;;;;;;5959110;24;20320;-76
2024/02/20 05:34:33;;;;;;;15.13;4.05;;;;;;;;;;5981674;23;20012;-75
2024/02/20 05:36:59;;;;;;;8.35;4.20;;;;;;;;;;5958473;24;20023;-76
2024/02/20 05:39:26;;;;;;;11.05;4.72;;;;;;;;;;5981859;24;20016;-73
2024/02/20 05:41:53;;;;;;;7.63;3.50;;;;;;;;;;5983404;23;20008;-74
2024/02/20 05:44:20;;;;;;;12.05;4.13;;;;;;;;;;5983607;24;20015;-73
2024/02/20 05:46:46;;;;;;;8.85;4.78;;;;;;;;;;5982986;23;20004;-75
2024/02/20 05:49:11;;;;;;;10.45;4.25;;;;;;;;;;5982555;23;20008;-76
2024/02/20 05:51:37;;;;;;;8.60;4.10;;;;;;;;;;5982214;23;20100;-77
2024/02/20 05:54:05;;;;;;;7.57;3.67;;;;;;;;;;5983166;24;20339;-74
2024/02/20 05:56:32;;;;;;;7.15;3.63;;;;;;;;;;5981790;24;20124;-74
2024/02/20 05:58:58;;;;;;;8.77;4.07;;;;;;;;;;5982044;24;20087;-77
2024/02/20 06:01:23;;;;;;;7.63;3.90;;;;;;;;;;5981091;24;20013;-76
2024/02/20 06:04:05;;;;;;;6.45;3.80;;;;;;;;;;5981648;24;20063;-76
2024/02/20 06:06:31;;;;;;;5.82;3.38;;;;;;;;;;5981723;24;20031;-76
2024/02/20 06:08:56;;;;;;;6.60;3.28;;;;;;;;;;5981354;24;20446;-74
2024/02/20 06:11:26;;;;;;;10.80;3.72;;;;;;;;;;5982321;24;20024;-77
2024/02/20 06:13:52;;;;;;;8.13;3.83;;;;;;;;;;5981852;24;20004;-76
2024/02/20 06:16:20;;;;;;;8.88;3.67;;;;;;;;;;5982025;24;20035;-74
2024/02/20 06:18:46;;;;;;;7.65;3.53;;;;;;;;;;5936536;24;20008;-74
2024/02/20 06:21:11;;;;;;;7.82;3.92;;;;;;;;;;5981744;24;20022;-77
2024/02/20 06:23:39;;;;;;;10.75;4.32;;;;;;;;;;5982193;23;20008;-75
2024/02/20 06:26:06;;;;;;;16.60;4.00;;;;;;;;;;5959263;24;20485;-75
2024/02/20 06:28:33;;;;;;;5.72;3.35;;;;;;;;;;5936908;24;20521;-74
2024/02/20 06:30:59;;;;;;;11.15;4.30;;;;;;;;;;5983784;24;20036;-75
2024/02/20 06:33:26;;;;;;;8.52;3.28;;;;;;;;;;5983250;23;20000;-74
2024/02/20 06:35:53;;;;;;;9.30;3.78;;;;;;;;;;5984308;23;20015;-75
2024/02/20 06:38:20;;;;;;;3.28;2.75;;;;;;;;;;5982028;24;20016;-74
2024/02/20 06:40:46;;;;;;;6.75;3.17;;;;;;;;;;5984694;24;20019;-76
2024/02/20 06:43:12;;;;;;;6.95;3.78;;;;;;;;;;5962907;24;20011;-76
2024/02/20 06:45:40;;;;;;;13.02;4.40;;;;;;;;;;5991093;23;20019;-75
2024/02/20 06:48:09;;;;;;;15.65;4.22;;;;;;;;;;5990064;24;20004;-77
2024/02/20 06:50:35;;;;;;;10.55;3.97;;;;;;;;;;6007788;23;20027;-73
2024/02/20 06:53:00;;;;;;;5.78;3.17;;;;;;;;;;6026992;23;20015;-74
2024/02/20 06:55:26;;;;;;;4.35;3.25;;;;;;;;;;6047840;23;20420;-74
2024/02/20 06:57:57;;;;;;;5.85;3.70;;;;;;;;;;5994351;23;20095;-76
2024/02/20 07:00:26;;;;;;;18.00;4.85;;;;;;;;;;6017254;23;20078;-76
2024/02/20 07:02:53;;;;;;;4.65;3.25;;;;;;;;;;6012794;23;20037;-78
2024/02/20 07:05:20;;;;;;;9.60;3.47;;;;;;;;;;6013215;23;20078;-75
2024/02/20 07:08:02;;;;;;;8.55;3.83;;;;;;;;;;6039015;23;20028;-75
2024/02/20 07:10:28;;;;;;;6.18;2.97;;;;;;;;;;6037754;23;20003;-74
2024/02/20 07:12:56;;;;;;;6.97;3.15;;;;;;;;;;6011454;23;20034;-74
2024/02/20 07:15:23;;;;;;;6.47;3.50;;;;;;;;;;6012034;23;20021;-75
2024/02/20 07:17:48;;;;;;;9.40;3.83;;;;;;;;;;6011320;23;20012;-76
2024/02/20 07:20:16;;;;;;;5.55;3.08;;;;;;;;;;6010887;23;20035;-75
2024/02/20 07:22:42;;;;;;;6.38;3.60;;;;;;;;;;6011504;23;20019;-73
2024/02/20 07:25:11;;;;;;;7.20;2.92;;;;;;;;;;6011356;23;20038;-75
2024/02/20 07:27:39;;;;;;;7.97;4.25;;;;;;;;;;6037100;23;20004;-75
2024/02/20 07:30:05;;;;;;;6.93;3.47;;;;;;;;;;6010028;23;20011;-74
2024/02/20 07:32:31;;;;;;;3.50;2.47;;;;;;;;;;6009344;23;20007;-75
2024/02/20 07:34:56;;;;;;;5.90;3.28;;;;;;;;;;6009427;23;20546;-75
2024/02/20 07:37:22;;;;;;;9.63;2.97;;;;;;;;;;6035118;23;20035;-75
2024/02/20 07:39:48;;;;;;;7.15;3.13;;;;;;;;;;6010090;23;20625;-76
2024/02/20 07:42:23;;;;;;;9.68;3.38;;;;;;;;;;6038354;23;20018;-74
2024/02/20 07:44:49;;;;;;;4.35;2.58;;;;;;;;;;6011423;23;20094;-73
2024/02/20 07:47:16;;;;;;;9.95;3.05;;;;;;;;;;6034989;23;20003;-77
2024/02/20 07:49:41;;;;;;;8.10;3.00;;;;;;;;;;6010780;23;20106;-77
2024/02/20 07:52:08;;;;;;;6.40;2.88;;;;;;;;;;5981861;23;20031;-76
2024/02/20 07:54:33;;;;;;;4.45;2.33;;;;;;;;;;5978965;23;20020;-75
2024/02/20 07:56:59;;;;;;;6.75;3.00;;;;;;;;;;5979387;23;20088;-76
2024/02/20 07:59:26;;;;;;;6.90;2.92;;;;;;;;;;5978912;24;20072;-77
2024/02/20 08:01:52;;;;;;;3.40;2.35;;;;;;;;;;5979330;23;20012;-74
2024/02/20 08:04:20;;;;;;;6.43;2.25;;;;;;;;;;5980537;23;20449;-76
2024/02/20 08:06:48;;;;;;;5.32;2.17;;;;;;;;;;5979756;23;20000;-77
2024/02/20 08:09:16;;;;;;;3.00;2.00;;;;;;;;;;5977840;23;20029;-75
2024/02/20 08:11:42;;;;;;;5.85;2.45;;;;;;;;;;5978423;24;20019;-74
2024/02/20 08:14:09;;;;;;;3.38;2.28;;;;;;;;;;5977240;24;20016;-76
2024/02/20 08:16:36;;;;;;;5.15;2.58;;;;;;;;;;5977352;24;20039;-76
2024/02/20 08:19:02;;;;;;;4.68;2.42;;;;;;;;;;5954619;24;20088;-75
2024/02/20 08:21:27;;;;;;;4.13;2.22;;;;;;;;;;5976768;24;20016;-75
2024/02/20 08:23:55;;;;;;;3.78;2.63;;;;;;;;;;5978681;23;20087;-74
2024/02/20 08:26:22;;;;;;;4.90;2.28;;;;;;;;;;5975454;23;20070;-75
2024/02/20 08:28:47;;;;;;;4.85;2.25;;;;;;;;;;5976566;24;20015;-77
2024/02/20 08:31:18;;;;;;;3.72;2.50;;;;;;;;;;5978070;23;20299;-73
2024/02/20 08:33:44;;;;;;;7.00;2.23;;;;;;;;;;5978011;23;20409;-73
2024/02/20 08:36:10;;;;;;;4.75;2.05;;;;;;;;;;5978294;24;20012;-73
2024/02/20 08:38:37;;;;;;;4.65;1.83;;;;;;;;;;5980745;24;20418;-77
2024/02/20 08:41:03;;;;;;;2.90;1.50;;;;;;;;;;5980165;23;20448;-76
2024/02/20 08:43:29;;;;;;;4.63;1.90;;;;;;;;;;5979107;23;20004;-73
2024/02/20 08:45:56;;;;;;;8.77;1.90;;;;;;;;;;5977653;23;20064;-74
2024/02/20 08:48:21;;;;;;;4.28;1.98;;;;;;;;;;5978460;24;20178;-73
2024/02/20 08:50:48;;;;;;;7.43;2.30;;;;;;;;;;5994642;23;20312;-76
2024/02/20 08:53:15;;;;;;;2.75;1.52;;;;;;;;;;6010426;23;20118;-72
2024/02/20 08:55:41;;;;;;;2.15;1.02;;;;;;;;;;6007900;23;20377;-70
2024/02/20 08:58:06;;;;;;;3.15;1.58;;;;;;;;;;6009271;23;20007;-74
2024/02/20 09:00:34;;;;;;;11.35;4.95;;;;;;;;;;6034521;23;20011;-75
2024/02/20 09:03:00;;;;;;;2.88;1.88;;;;;;;;;;6012174;23;20066;-76
2024/02/20 09:05:27;;;;;;;3.05;1.08;;;;;;;;;;6011218;23;20015;-75
2024/02/20 09:07:53;;;;;;;4.68;1.30;;;;;;;;;;6035267;23;20017;-77
2024/02/20 09:10:19;;;;;;;2.88;1.08;;;;;;;;;;6010192;23;20382;-75
2024/02/20 09:12:46;;;;;;;4.05;0.70;;;;;;;;;;6030651;23;20011;-75
2024/02/20 09:15:11;;;;;;;0.73;0.65;;;;;;;;;;5987495;23;20015;-75
2024/02/20 09:17:38;;;;;;;0.85;0.82;;;;;;;;;;6037325;23;20030;-76
2024/02/20 09:20:06;;;;;;;0.80;0.60;;;;;;;;;;6036051;23;20480;-74
2024/02/20 09:22:36;;;;;;;1.35;0.70;;;;;;;;;;6036690;23;20011;-75
2024/02/20 09:25:15;;;;;;;2.53;0.60;;;;;;;;;;6013739;23;20103;-74
2024/02/20 09:27:42;;;;;;;1.13;0.90;;;;;;;;;;6009923;23;20082;-74
2024/02/20 09:30:08;;;;;;;1.75;1.00;;;;;;;;;;6009756;23;20042;-77
2024/02/20 09:32:34;;;;;;;2.00;0.85;;;;;;;;;;5987762;23;20023;-74
2024/02/20 09:35:00;;;;;;;1.83;1.10;;;;;;;;;;6009384;23;20017;-76
2024/02/20 09:37:26;;;;;;;2.42;0.90;;;;;;;;;;5988961;23;20019;-76
2024/02/20 09:39:51;;;;;;;1.30;1.20;;;;;;;;;;6015300;23;20011;-74
2024/02/20 09:42:24;;;;;;;1.42;1.20;;;;;;;;;;6011909;23;20329;-74
2024/02/20 09:44:55;;;;;;;1.38;1.10;;;;;;;;;;6011198;23;20011;-72
2024/02/20 09:47:22;;;;;;;3.03;1.02;;;;;;;;;;6035012;23;20038;-75
2024/02/20 09:49:53;;;;;;;1.50;1.10;;;;;;;;;;6011046;23;20008;-76
2024/02/20 09:52:20;;;;;;;4.57;1.35;;;;;;;;;;5988633;23;20023;-77
2024/02/20 09:54:48;;;;;;;1.23;1.00;;;;;;;;;;5929453;24;20020;-75
2024/02/20 09:57:15;;;;;;;2.72;1.23;;;;;;;;;;5952561;24;20039;-73
2024/02/20 09:59:45;;;;;;;2.13;1.00;;;;;;;;;;5928169;24;20041;-73
2024/02/20 10:02:22;;;;;;;1.38;1.27;;;;;;;;;;5928265;24;20009;-75
2024/02/20 10:04:50;;;;;;;1.27;0.90;;;;;;;;;;5924974;24;20008;-74
2024/02/20 10:07:18;;;;;;;0.80;0.80;;;;;;;;;;5902436;24;20093;-76
2024/02/20 10:09:44;;;;;;;0.88;0.88;;;;;;;;;;5926139;24;20016;-75
2024/02/20 10:13:14;;;;;;;2.15;0.90;;;;;;;;;;5925539;24;20012;-76
2024/02/20 10:15:40;;;;;;;1.75;0.93;;;;;;;;;;5892681;24;20149;-74
2024/02/20 10:18:07;;;;;;;1.58;0.90;;;;;;;;;;5904689;24;20497;-73
2024/02/20 10:20:33;;;;;;;0.88;0.70;;;;;;;;;;5926359;24;20324;-74
2024/02/20 10:23:09;;;;;;;1.27;1.00;;;;;;;;;;5926974;24;20064;-76
2024/02/20 10:25:36;;;;;;;1.13;0.50;;;;;;;;;;5987610;23;20630;-72
2024/02/20 10:28:05;;;;;;;1.23;0.77;;;;;;;;;;6012991;23;20011;-73
2024/02/20 10:30:31;;;;;;;0.98;0.70;;;;;;;;;;6036789;23;20007;-74
2024/02/20 10:32:58;;;;;;;1.52;0.85;;;;;;;;;;6011887;23;20317;-72
2024/02/20 10:35:23;;;;;;;1.98;0.82;;;;;;;;;;6037215;23;20030;-74
2024/02/20 10:38:04;;;;;;;1.55;0.90;;;;;;;;;;6011441;23;20433;-73
2024/02/20 10:40:31;;;;;;;1.02;0.73;;;;;;;;;;6037294;23;20058;-74
2024/02/20 10:42:57;;;;;;;2.67;0.88;;;;;;;;;;6011504;23;20007;-75
2024/02/20 10:45:24;;;;;;;1.02;0.55;;;;;;;;;;5987986;23;20037;-75
2024/02/20 10:47:54;;;;;;;0.57;0.57;;;;;;;;;;6010549;23;20321;-75
2024/02/20 10:50:21;;;;;;;0.57;0.57;;;;;;;;;;5987521;23;20015;-73
2024/02/20 10:52:50;;;;;;;1.08;0.80;;;;;;;;;;6035025;23;20039;-74
2024/02/20 10:55:16;;;;;;;3.13;1.13;;;;;;;;;;6033035;23;20038;-74
2024/02/20 10:57:42;;;;;;;1.70;0.70;;;;;;;;;;6011584;23;20082;-73
2024/02/20 11:00:11;;;;;;;0.82;0.60;;;;;;;;;;5987487;23;20054;-73
2024/02/20 11:02:42;;;;;;;0.85;0.65;;;;;;;;;;6020355;23;20022;-73
2024/02/20 11:05:13;;;;;;;1.50;1.40;;;;;;;;;;6022797;23;20258;-71
2024/02/20 11:07:39;;;;;;;1.73;0.53;;;;;;;;;;6037542;23;20082;-73
2024/02/20 11:10:17;;;;;;;0.93;0.60;;;;;;;;;;6036791;23;20014;-74
2024/02/20 11:12:45;;;;;;;1.17;0.43;;;;;;;;;;6012575;23;20050;-73
2024/02/20 11:15:14;;;;;;;0.40;0.40;;;;;;;;;;6013471;23;20034;-75
2024/02/20 11:17:42;;;;;;;1.60;0.50;;;;;;;;;;6040641;23;20003;-74
2024/02/20 11:20:16;;;;;;;6.82;3.40;;;;;;;;;;6016870;23;20007;-72
2024/02/20 11:22:43;;;;;;;0.77;0.35;;;;;;;;;;6013373;23;20007;-73
2024/02/20 11:25:16;;;;;;;1.35;0.70;;;;;;;;;;6013809;23;20655;-73
2024/02/20 11:27:46;;;;;;;1.35;0.40;;;;;;;;;;5990987;23;20078;-73
2024/02/20 11:30:21;;;;;;;1.08;0.90;;;;;;;;;;6012937;23;20118;-73
2024/02/20 11:32:49;;;;;;;1.38;0.60;;;;;;;;;;6013151;23;20090;-72
2024/02/20 11:35:33;;;;;;;0.80;0.60;;;;;;;;;;6038600;23;20035;-74
2024/02/20 11:38:01;;;;;;;4.05;1.00;;;;;;;;;;6013440;23;20011;-75
2024/02/20 11:40:28;;;;;;;1.25;0.70;;;;;;;;;;6013145;23;20556;-76
2024/02/20 11:42:57;;;;;;;5.60;0.73;;;;;;;;;;6014375;23;20011;-74
2024/02/20 11:45:25;;;;;;;0.65;0.50;;;;;;;;;;6039092;23;20011;-73
2024/02/20 11:48:01;;;;;;;3.78;0.63;;;;;;;;;;6014753;23;20045;-74
2024/02/20 11:50:28;;;;;;;0.95;0.45;;;;;;;;;;6036631;23;20027;-74
2024/02/20 11:53:16;;;;;;;2.53;0.50;;;;;;;;;;6013202;23;20066;-74
2024/02/20 11:55:51;;;;;;;2.38;0.40;;;;;;;;;;6011608;23;20007;-74
2024/02/20 11:58:19;;;;;;;1.73;0.47;;;;;;;;;;6036348;23;20059;-73
2024/02/20 12:00:46;;;;;;;1.40;0.60;;;;;;;;;;6034464;23;20007;-74
2024/02/20 12:03:25;;;;;;;2.60;0.40;;;;;;;;;;6009892;23;20019;-74
2024/02/20 12:05:50;;;;;;;1.95;0.50;;;;;;;;;;6011626;23;20003;-74
2024/02/20 12:08:17;;;;;;;0.80;0.43;;;;;;;;;;6036606;23;20079;-77
2024/02/20 12:10:44;;;;;;;3.83;0.50;;;;;;;;;;6009871;23;20007;-73
2024/02/20 12:13:20;;;;;;;4.50;0.40;;;;;;;;;;6009628;23;20464;-75
2024/02/20 12:15:49;;;;;;;1.15;0.68;;;;;;;;;;6010415;23;20027;-73
2024/02/20 12:18:28;;;;;;;1.13;0.40;;;;;;;;;;6035016;23;20013;-76
2024/02/20 12:21:07;;;;;;;1.45;0.32;;;;;;;;;;5986239;23;20106;-74
2024/02/20 12:23:33;;;;;;;0.43;0.40;;;;;;;;;;6034376;23;20084;-74
2024/02/20 12:26:09;;;;;;;3.75;0.70;;;;;;;;;;6034288;23;20086;-75
2024/02/20 12:28:36;;;;;;;5.35;0.70;;;;;;;;;;6035623;23;20070;-76
2024/02/20 12:31:08;;;;;;;6.93;0.70;;;;;;;;;;6009034;23;20014;-75
2024/02/20 12:33:34;;;;;;;;;;;;;;;;;;6034943;23;20011;-72
2024/02/20 12:36:02;;;;;;;0.30;0.30;;;;;;;;;;6010525;23;20193;-74
2024/02/20 12:38:31;;;;;;;0.32;0.32;;;;;;;;;;6037313;23;20417;-76
2024/02/20 12:40:56;;;;;;;0.88;0.50;;;;;;;;;;6007317;23;20007;-72
2024/02/20 12:43:22;;;;;;;1.55;0.40;;;;;;;;;;6010032;23;20011;-74
2024/02/20 12:45:48;;;;;;;1.52;0.43;;;;;;;;;;6009934;23;20091;-76
2024/02/20 12:48:14;;;;;;;0.45;0.45;;;;;;;;;;6035191;23;20055;-74
2024/02/20 12:50:40;;;;;;;1.38;0.50;;;;;;;;;;5997926;23;20028;-74
2024/02/20 12:53:07;;;;;;;2.35;0.60;;;;;;;;;;5977470;23;20008;-76
2024/02/20 12:55:37;;;;;;;1.33;0.50;;;;;;;;;;5977171;24;20067;-75
2024/02/20 12:58:08;;;;;;;0.40;0.40;;;;;;;;;;5980623;23;20299;-76
2024/02/20 13:00:35;;;;;;;0.85;0.55;;;;;;;;;;5979177;23;20019;-74
2024/02/20 13:03:01;;;;;;;1.70;0.47;;;;;;;;;;5954331;24;20024;-73
2024/02/20 13:05:31;;;;;;;1.70;0.55;;;;;;;;;;5978317;23;20019;-73
2024/02/20 13:08:01;;;;;;;1.48;0.55;;;;;;;;;;5977356;24;20079;-77
2024/02/20 13:10:33;;;;;;;2.10;0.57;;;;;;;;;;5977677;24;20040;-74
2024/02/20 13:13:00;;;;;;;1.70;0.55;;;;;;;;;;5978026;24;20028;-75
2024/02/20 13:15:26;;;;;;;3.58;0.70;;;;;;;;;;5976638;24;20016;-73
2024/02/20 13:17:56;;;;;;;1.45;0.70;;;;;;;;;;5977900;24;20041;-73
2024/02/20 13:20:29;;;;;;;4.43;0.85;;;;;;;;;;5975699;23;20015;-73
2024/02/20 13:22:57;;;;;;;1.77;0.57;;;;;;;;;;5979775;23;20071;-77
2024/02/20 13:25:23;;;;;;;2.75;0.40;;;;;;;;;;5953327;24;20008;-72
2024/02/20 13:27:50;;;;;;;2.83;0.63;;;;;;;;;;5977313;24;20011;-73
2024/02/20 13:30:16;;;;;;;7.78;2.63;;;;;;;;;;5977035;23;20008;-75
2024/02/20 13:32:44;;;;;;;4.47;1.48;;;;;;;;;;5978884;23;20083;-74
2024/02/20 13:35:15;;;;;;;3.30;1.10;;;;;;;;;;5977349;24;20084;-72
2024/02/20 13:37:47;;;;;;;3.57;0.60;;;;;;;;;;5955150;24;20014;-77
2024/02/20 13:40:15;;;;;;;1.13;1.08;;;;;;;;;;5979047;23;20514;-72
2024/02/20 13:42:42;;;;;;;2.25;1.55;;;;;;;;;;5977324;23;20011;-73
2024/02/20 13:45:09;;;;;;;6.45;1.60;;;;;;;;;;5977566;24;20035;-74
2024/02/20 13:47:35;;;;;;;5.50;1.45;;;;;;;;;;5978026;23;20438;-74
2024/02/20 13:50:02;;;;;;;7.95;1.52;;;;;;;;;;5975098;23;20015;-73
2024/02/20 13:52:28;;;;;;;6.00;2.05;;;;;;;;;;5975244;23;20035;-75
2024/02/20 13:54:53;;;;;;;6.65;1.70;;;;;;;;;;5977986;24;20036;-72
2024/02/20 13:57:20;;;;;;;1.85;0.70;;;;;;;;;;5975113;24;20019;-74
2024/02/20 13:59:47;;;;;;;1.35;1.02;;;;;;;;;;5978220;23;20161;-74
2024/02/20 14:02:13;;;;;;;3.67;1.00;;;;;;;;;;5976604;23;20012;-72
2024/02/20 14:04:38;;;;;;;4.03;1.17;;;;;;;;;;5978025;23;20395;-75
2024/02/20 14:07:04;;;;;;;3.55;0.80;;;;;;;;;;5977883;23;20054;-73
2024/02/20 14:09:30;;;;;;;5.93;1.63;;;;;;;;;;5976642;23;20060;-71
2024/02/20 14:11:56;;;;;;;2.10;0.98;;;;;;;;;;5978041;23;20007;-76
2024/02/20 14:14:22;;;;;;;9.00;1.77;;;;;;;;;;5975188;23;20012;-73
2024/02/20 14:16:47;;;;;;;3.28;1.42;;;;;;;;;;5981634;24;20659;-75
2024/02/20 14:19:13;;;;;;;2.85;1.00;;;;;;;;;;5985304;23;20037;-72
2024/02/20 14:21:40;;;;;;;1.70;1.00;;;;;;;;;;5977285;23;20515;-75
2024/02/20 14:24:05;;;;;;;4.75;1.10;;;;;;;;;;5976502;24;20091;-73
2024/02/20 14:26:31;;;;;;;5.07;1.13;;;;;;;;;;5976296;23;20004;-73
2024/02/20 14:28:57;;;;;;;3.40;0.98;;;;;;;;;;5950546;24;20016;-75
2024/02/20 14:31:24;;;;;;;2.63;0.80;;;;;;;;;;5975863;24;20083;-75
2024/02/20 14:33:49;;;;;;;8.38;1.63;;;;;;;;;;5978334;23;20027;-75
2024/02/20 14:36:15;;;;;;;7.55;2.22;;;;;;;;;;5977837;23;20321;-76
2024/02/20 14:38:40;;;;;;;4.88;1.58;;;;;;;;;;5979161;23;20426;-73
2024/02/20 14:41:06;;;;;;;5.28;1.13;;;;;;;;;;5978141;23;20008;-70
2024/02/20 14:43:33;;;;;;;3.15;1.08;;;;;;;;;;5978790;23;20012;-76
2024/02/20 14:45:59;;;;;;;1.90;0.95;;;;;;;;;;5977712;23;20008;-73